Terminal Aerodrome Forecast
Issued by NWS St Louis, MO

Home | Current Version | Previous Version | Text Only | Print | Product List | Glossary On
Versions: 1 2 3 4 5 6 7 8 9 10 11 12 13 14 15 16 17 18
000
FTUS43 KLSX 271700
TAFCOU
TAF
KCOU 271734Z 2718/2818 19016G26KT P6SM VCTS SCT050CB BKN120
     FM271900 19016G26KT P6SM BKN120
     FM280000 21011KT P6SM OVC040
      TEMPO 2800/2803 5SM -SHRA
     FM280500 30012G20KT P6SM BKN080
     FM281600 28010KT P6SM SKC=

USA.gov is the U.S. government's official web portal to all federal, state and local government web resources and services.